Terminal Aerodrome Forecast
Issued by NWS

Home | Current Version | Previous Version | Text Only | Print | Product List | Glossary On
Versions: 1 2 3 4 5 6 7 8 9 10 11 12
000
FTUS45 KABQ 300539
TAFFMN
TAF
KFMN 300539Z 3006/3106 14010G17KT P6SM FEW120
     FM300730 10008KT P6SM FEW120
     FM301500 12006KT P6SM SCT120
     FM302000 23009KT P6SM SCT090
     FM302300 VRB06KT P6SM VCSH SCT090 BKN120
      TEMPO 3023/3103 VRB16G27KT BKN080=

USA.gov is the U.S. government's official web portal to all federal, state and local government web resources and services.